Mc Gregor, Texas
Current Conditions -  °F | °C
As of 1:55 PM on Monday 22 Dec 2014 (Local Time) from KPWG Reporting Station
Clear Clear  
Wind Chill: 72°   Ceiling: Unl
Heat Index: 72°   Visibility: 10mi
Dew Point: 43°   Wind: 14mph
Humidity: 35%   Direction: 270°W
Pressure: 29.59"   Gusts: NA
Location:  31.434°N, 97.3939°W
Report Text: KPWG 221955Z AUTO 27012KT 10SM CLR 22/06 A2959 RMK AO1
Loading
Personal Weather Stations






























Interactive Weather Map New forecast layout! Learn more

10-Day Weather Forecast

Advertisements
Track Severe Weather on mobile